Estación de El Cardal INIA
Ultimos registro cada 15 minutos 53
| N° | Estación | Fecha / Hora | Temperatura | Humedad | Lluvia | Velocidad | Dirección | Radiación | Presion |
| 53 | El Cardal INIA | 10-05-2026 13:00 | 11,8 | 72,5 | 0 | 0 | 89 | 488 | 1014 |
| 52 | El Cardal INIA | 10-05-2026 12:45 | 11,4 | 74,4 | 0 | 0 | 0 | 494 | 1014 |
| 51 | El Cardal INIA | 10-05-2026 12:30 | 11 | 80,2 | 0 | 0 | 253 | 490 | 1014 |
| 50 | El Cardal INIA | 10-05-2026 12:15 | 10,6 | 77,7 | 0 | 0 | 0 | 485 | 1014 |
| 49 | El Cardal INIA | 10-05-2026 12:00 | 9,8 | 77,6 | 0 | 0,2 | 262 | 474 | 1014 |
| 48 | El Cardal INIA | 10-05-2026 11:45 | 10,1 | 80,3 | 0 | 0,1 | 243 | 451 | 1015 |
| 47 | El Cardal INIA | 10-05-2026 11:30 | 9,9 | 80,2 | 0 | 0,1 | 230 | 445 | 1015 |
| 46 | El Cardal INIA | 10-05-2026 11:15 | 9,5 | 81,7 | 0 | 0 | 246 | 450 | 1015 |
| 45 | El Cardal INIA | 10-05-2026 11:00 | 8,6 | 81,7 | 0 | 0,1 | 156 | 394 | 1015 |
| 44 | El Cardal INIA | 10-05-2026 10:45 | 7,4 | 87,3 | 0 | 0 | 0 | 288 | 1015 |
| 43 | El Cardal INIA | 10-05-2026 10:30 | 6,6 | 91,9 | 0 | 0 | 0 | 153 | 1016 |
| 42 | El Cardal INIA | 10-05-2026 10:15 | 6,2 | 95,1 | 0 | 0 | 0 | 127 | 1015 |
| 41 | El Cardal INIA | 10-05-2026 10:00 | 5,7 | 97,9 | 0 | 0 | 0 | 134 | 1015 |
| 40 | El Cardal INIA | 10-05-2026 09:45 | 4,8 | 99 | 0 | 0 | 0 | 123 | 1015 |
| 39 | El Cardal INIA | 10-05-2026 09:30 | 4 | 100 | 0 | 0 | 266 | 86 | 1015 |
| 38 | El Cardal INIA | 10-05-2026 09:15 | 3,7 | 99,4 | 0 | 0 | 0 | 58 | 1015 |
| 37 | El Cardal INIA | 10-05-2026 09:00 | 3,8 | 99,2 | 0 | 0 | 0 | 51 | 1015 |
| 36 | El Cardal INIA | 10-05-2026 08:45 | 3,5 | 100 | 0 | 0 | 0 | 35 | 1015 |
| 35 | El Cardal INIA | 10-05-2026 08:30 | 3,1 | 100 | 0 | 0 | 0 | 19 | 1015 |
| 34 | El Cardal INIA | 10-05-2026 08:15 | 2,6 | 100 | 0 | 0 | 0 | 8 | 1015 |
| 33 | El Cardal INIA | 10-05-2026 08:00 | 2,7 | 99,5 | 0 | 0 | 0 | 3 | 1015 |
| 32 | El Cardal INIA | 10-05-2026 07:45 | 2,4 | 100 | 0 | 0 | 0 | 1 | 1015 |
| 31 | El Cardal INIA | 10-05-2026 07:30 | 1,9 | 100 | 0 | 0 | 0 | 0 | 1015 |
| 30 | El Cardal INIA | 10-05-2026 07:15 | 1,6 | 100 | 0 | 0 | 0 | 0 | 1015 |
| 29 | El Cardal INIA | 10-05-2026 07:00 | 1,3 | 100 | 0 | 0 | 0 | 0 | 1015 |
| 28 | El Cardal INIA | 10-05-2026 06:45 | 0,9 | 100 | 0 | 0 | 0 | 0 | 1015 |
| 27 | El Cardal INIA | 10-05-2026 06:30 | 0,8 | 100 | 0 | 0 | 0 | 0 | 1015 |
| 26 | El Cardal INIA | 10-05-2026 06:15 | 0,6 | 100 | 0 | 0 | 338 | 0 | 1015 |
| 25 | El Cardal INIA | 10-05-2026 06:00 | 1 | 99,3 | 0 | 0 | 0 | 0 | 1015 |
| 24 | El Cardal INIA | 10-05-2026 05:45 | 1,1 | 100 | 0 | 0 | 0 | 0 | 1015 |
| 23 | El Cardal INIA | 10-05-2026 05:30 | 1,3 | 100 | 0 | 0,1 | 68 | 0 | 1015 |
| 22 | El Cardal INIA | 10-05-2026 05:15 | 1,4 | 99,1 | 0 | 0,2 | 72 | 0 | 1015 |
| 21 | El Cardal INIA | 10-05-2026 05:00 | 1,8 | 99,2 | 0 | 0 | 0 | 0 | 1015 |
| 20 | El Cardal INIA | 10-05-2026 04:45 | 1,8 | 99,2 | 0 | 0 | 0 | 0 | 1015 |
| 19 | El Cardal INIA | 10-05-2026 04:30 | 1,6 | 98,7 | 0 | 0 | 0 | 0 | 1015 |
| 18 | El Cardal INIA | 10-05-2026 04:15 | 1,5 | 98,5 | 0 | 0,5 | 23 | 0 | 1015 |
| 17 | El Cardal INIA | 10-05-2026 04:00 | 3,1 | 96,8 | 0 | 0 | 0 | 0 | 1015 |
| 16 | El Cardal INIA | 10-05-2026 03:45 | 3,3 | 98,1 | 0 | 0 | 0 | 0 | 1015 |
| 15 | El Cardal INIA | 10-05-2026 03:30 | 3 | 98,4 | 0 | 0 | 0 | 0 | 1015 |
| 14 | El Cardal INIA | 10-05-2026 03:15 | 2,2 | 98,7 | 0 | 0 | 0 | 0 | 1015 |
| 13 | El Cardal INIA | 10-05-2026 03:00 | 2,2 | 96,4 | 0 | 0 | 0 | 0 | 1015 |
| 12 | El Cardal INIA | 10-05-2026 02:45 | 2,8 | 96,6 | 0 | 0 | 0 | 0 | 1016 |
| 11 | El Cardal INIA | 10-05-2026 02:30 | 2,4 | 97,1 | 0 | 0 | 0 | 0 | 1016 |
| 10 | El Cardal INIA | 10-05-2026 02:15 | 3 | 95 | 0 | 0 | 0 | 0 | 1016 |
| 9 | El Cardal INIA | 10-05-2026 02:00 | 3,6 | 95,5 | 0 | 0 | 0 | 0 | 1016 |
| 8 | El Cardal INIA | 10-05-2026 01:45 | 3,4 | 95,9 | 0 | 0 | 0 | 0 | 1016 |
| 7 | El Cardal INIA | 10-05-2026 01:30 | 3,4 | 95 | 0 | 0 | 0 | 0 | 1016 |
| 6 | El Cardal INIA | 10-05-2026 01:15 | 3,8 | 94,5 | 0 | 0 | 0 | 0 | 1016 |
| 5 | El Cardal INIA | 10-05-2026 01:00 | 3,5 | 96 | 0 | 0 | 251 | 0 | 1016 |
| 4 | El Cardal INIA | 10-05-2026 00:45 | 3 | 97,2 | 0 | 0 | 0 | 0 | 1016 |
| 3 | El Cardal INIA | 10-05-2026 00:30 | 2,9 | 96,4 | 0 | 0 | 0 | 0 | 1016 |
| 2 | El Cardal INIA | 10-05-2026 00:15 | 2,7 | 96,1 | 0 | 0 | 0 | 0 | 1016 |
| 1 | El Cardal INIA | 10-05-2026 00:00 | 2,9 | 94,9 | 0 | 0 | 0 | 0 | 1016 |